sensor_id;sensor_type;location;lat;lon;timestamp;P1;durP1;ratioP1;P2;durP2;ratioP2
30824;SDS011;17550;45.486;12.222;2022-12-22T16:07:42;170.35;;;88.50;;
30824;SDS011;17550;45.486;12.222;2022-12-22T16:13:03;193.95;;;99.22;;
30824;SDS011;17550;45.486;12.222;2022-12-22T16:15:30;225.73;;;115.25;;
30824;SDS011;17550;45.486;12.222;2022-12-22T16:17:58;177.50;;;94.10;;
30824;SDS011;17550;45.486;12.222;2022-12-22T16:20:24;166.95;;;91.47;;
30824;SDS011;17550;45.486;12.222;2022-12-22T16:22:52;180.48;;;92.80;;
30824;SDS011;17550;45.486;12.222;2022-12-22T16:25:19;163.07;;;89.00;;
30824;SDS011;17550;45.486;12.222;2022-12-22T16:27:48;163.00;;;89.20;;
30824;SDS011;17550;45.486;12.222;2022-12-22T16:30:16;193.27;;;104.03;;
30824;SDS011;17550;45.486;12.222;2022-12-22T16:32:47;215.60;;;112.03;;
30824;SDS011;17550;45.486;12.222;2022-12-22T16:35:15;212.05;;;114.10;;
30824;SDS011;17550;45.486;12.222;2022-12-22T16:37:42;199.55;;;104.72;;
30824;SDS011;17550;45.486;12.222;2022-12-22T16:40:08;170.02;;;91.97;;
30824;SDS011;17550;45.486;12.222;2022-12-22T16:42:35;167.02;;;88.80;;
30824;SDS011;17550;45.486;12.222;2022-12-22T16:45:04;178.48;;;95.95;;
30824;SDS011;17550;45.486;12.222;2022-12-22T16:47:38;167.85;;;91.03;;
30824;SDS011;17550;45.486;12.222;2022-12-22T16:50:05;180.70;;;94.22;;
30824;SDS011;17550;45.486;12.222;2022-12-22T16:52:40;174.55;;;93.15;;
30824;SDS011;17550;45.486;12.222;2022-12-22T16:55:12;195.02;;;102.90;;
30824;SDS011;17550;45.486;12.222;2022-12-22T16:57:40;179.35;;;94.22;;
30824;SDS011;17550;45.486;12.222;2022-12-22T17:00:06;181.50;;;97.45;;
30824;SDS011;17550;45.486;12.222;2022-12-22T17:02:34;176.48;;;93.50;;
30824;SDS011;17550;45.486;12.222;2022-12-22T17:05:00;172.15;;;92.97;;
30824;SDS011;17550;45.486;12.222;2022-12-22T17:07:27;178.73;;;93.18;;
30824;SDS011;17550;45.486;12.222;2022-12-22T17:09:56;174.13;;;94.55;;
30824;SDS011;17550;45.486;12.222;2022-12-22T17:12:28;181.33;;;92.93;;
30824;SDS011;17550;45.486;12.222;2022-12-22T17:14:58;168.20;;;91.82;;
30824;SDS011;17550;45.486;12.222;2022-12-22T17:17:25;176.63;;;94.00;;
30824;SDS011;17550;45.486;12.222;2022-12-22T17:19:51;167.32;;;91.20;;
30824;SDS011;17550;45.486;12.222;2022-12-22T17:22:19;160.70;;;89.00;;
30824;SDS011;17550;45.486;12.222;2022-12-22T17:24:48;167.07;;;91.68;;
30824;SDS011;17550;45.486;12.222;2022-12-22T17:27:15;165.45;;;92.32;;
30824;SDS011;17550;45.486;12.222;2022-12-22T17:29:43;170.00;;;90.97;;
30824;SDS011;17550;45.486;12.222;2022-12-22T17:32:12;171.05;;;92.97;;
30824;SDS011;17550;45.486;12.222;2022-12-22T17:34:38;172.00;;;88.32;;
30824;SDS011;17550;45.486;12.222;2022-12-22T17:37:07;172.88;;;91.03;;
30824;SDS011;17550;45.486;12.222;2022-12-22T17:39:41;176.13;;;94.03;;
30824;SDS011;17550;45.486;12.222;2022-12-22T17:42:17;164.35;;;90.22;;
30824;SDS011;17550;45.486;12.222;2022-12-22T17:44:45;164.80;;;91.03;;
30824;SDS011;17550;45.486;12.222;2022-12-22T17:47:11;170.25;;;94.45;;
30824;SDS011;17550;45.486;12.222;2022-12-22T17:49:38;187.00;;;97.53;;
30824;SDS011;17550;45.486;12.222;2022-12-22T17:52:04;189.27;;;99.28;;
30824;SDS011;17550;45.486;12.222;2022-12-22T17:54:30;195.35;;;106.57;;
30824;SDS011;17550;45.486;12.222;2022-12-22T17:56:59;182.50;;;101.70;;
30824;SDS011;17550;45.486;12.222;2022-12-22T17:59:28;201.55;;;105.05;;
30824;SDS011;17550;45.486;12.222;2022-12-22T18:01:54;184.02;;;102.03;;
30824;SDS011;17550;45.486;12.222;2022-12-22T18:04:20;185.68;;;99.20;;
30824;SDS011;17550;45.486;12.222;2022-12-22T18:06:46;176.07;;;98.47;;
30824;SDS011;17550;45.486;12.222;2022-12-22T18:09:19;186.65;;;99.18;;
30824;SDS011;17550;45.486;12.222;2022-12-22T18:11:47;191.65;;;102.88;;
30824;SDS011;17550;45.486;12.222;2022-12-22T18:14:14;176.55;;;98.15;;
30824;SDS011;17550;45.486;12.222;2022-12-22T18:16:40;169.82;;;93.75;;
30824;SDS011;17550;45.486;12.222;2022-12-22T18:19:07;189.65;;;99.30;;
30824;SDS011;17550;45.486;12.222;2022-12-22T18:21:32;190.48;;;104.72;;
30824;SDS011;17550;45.486;12.222;2022-12-22T18:23:58;184.77;;;101.10;;
30824;SDS011;17550;45.486;12.222;2022-12-22T18:26:26;194.43;;;104.30;;
30824;SDS011;17550;45.486;12.222;2022-12-22T18:28:54;182.43;;;100.60;;
30824;SDS011;17550;45.486;12.222;2022-12-22T18:31:20;188.00;;;100.82;;
30824;SDS011;17550;45.486;12.222;2022-12-22T18:33:47;187.90;;;101.68;;
30824;SDS011;17550;45.486;12.222;2022-12-22T18:36:19;184.00;;;100.93;;
30824;SDS011;17550;45.486;12.222;2022-12-22T18:38:56;177.23;;;97.15;;
30824;SDS011;17550;45.486;12.222;2022-12-22T18:41:24;173.30;;;97.18;;
30824;SDS011;17550;45.486;12.222;2022-12-22T18:43:51;175.23;;;95.45;;
30824;SDS011;17550;45.486;12.222;2022-12-22T18:46:17;179.95;;;95.18;;
30824;SDS011;17550;45.486;12.222;2022-12-22T18:48:43;177.00;;;96.15;;
30824;SDS011;17550;45.486;12.222;2022-12-22T18:51:16;173.77;;;96.90;;
30824;SDS011;17550;45.486;12.222;2022-12-22T18:53:47;186.80;;;95.53;;
30824;SDS011;17550;45.486;12.222;2022-12-22T18:56:14;193.55;;;103.85;;
30824;SDS011;17550;45.486;12.222;2022-12-22T18:58:40;178.55;;;96.40;;
30824;SDS011;17550;45.486;12.222;2022-12-22T19:01:06;183.38;;;98.90;;
30824;SDS011;17550;45.486;12.222;2022-12-22T19:03:47;191.98;;;102.57;;
30824;SDS011;17550;45.486;12.222;2022-12-22T19:06:14;185.70;;;96.47;;
30824;SDS011;17550;45.486;12.222;2022-12-22T19:08:45;178.70;;;101.95;;
30824;SDS011;17550;45.486;12.222;2022-12-22T19:11:14;193.45;;;101.88;;
30824;SDS011;17550;45.486;12.222;2022-12-22T19:13:43;196.43;;;107.18;;
30824;SDS011;17550;45.486;12.222;2022-12-22T19:16:15;193.82;;;105.32;;
30824;SDS011;17550;45.486;12.222;2022-12-22T19:21:12;185.95;;;102.38;;
30824;SDS011;17550;45.486;12.222;2022-12-22T19:23:39;187.23;;;102.18;;
30824;SDS011;17550;45.486;12.222;2022-12-22T19:26:05;183.73;;;105.40;;
30824;SDS011;17550;45.486;12.222;2022-12-22T19:28:36;198.98;;;106.47;;
30824;SDS011;17550;45.486;12.222;2022-12-22T19:31:06;205.40;;;109.95;;
30824;SDS011;17550;45.486;12.222;2022-12-22T19:33:35;199.18;;;108.07;;
30824;SDS011;17550;45.486;12.222;2022-12-22T19:36:14;194.80;;;105.50;;
30824;SDS011;17550;45.486;12.222;2022-12-22T19:38:48;189.88;;;105.03;;
30824;SDS011;17550;45.486;12.222;2022-12-22T19:41:43;212.30;;;112.45;;
30824;SDS011;17550;45.486;12.222;2022-12-22T19:44:24;212.18;;;110.80;;
30824;SDS011;17550;45.486;12.222;2022-12-22T19:46:52;275.85;;;153.07;;
30824;SDS011;17550;45.486;12.222;2022-12-22T19:49:23;230.27;;;122.38;;
30824;SDS011;17550;45.486;12.222;2022-12-22T19:51:51;218.25;;;119.90;;
30824;SDS011;17550;45.486;12.222;2022-12-22T19:54:17;225.88;;;120.18;;
30824;SDS011;17550;45.486;12.222;2022-12-22T19:56:44;229.63;;;118.90;;
30824;SDS011;17550;45.486;12.222;2022-12-22T20:01:59;281.67;;;137.80;;
30824;SDS011;17550;45.486;12.222;2022-12-22T20:04:25;326.98;;;152.32;;
30824;SDS011;17550;45.486;12.222;2022-12-22T20:06:50;303.50;;;145.40;;
30824;SDS011;17550;45.486;12.222;2022-12-22T20:09:16;233.02;;;124.18;;
30824;SDS011;17550;45.486;12.222;2022-12-22T20:11:42;239.48;;;128.80;;
30824;SDS011;17550;45.486;12.222;2022-12-22T20:14:17;238.93;;;128.25;;
30824;SDS011;17550;45.486;12.222;2022-12-22T20:16:43;219.27;;;123.97;;
30824;SDS011;17550;45.486;12.222;2022-12-22T20:19:13;215.98;;;120.78;;
30824;SDS011;17550;45.486;12.222;2022-12-22T20:21:39;237.32;;;128.43;;
30824;SDS011;17550;45.486;12.222;2022-12-22T20:24:06;234.38;;;127.90;;
30824;SDS011;17550;45.486;12.222;2022-12-22T20:26:33;228.73;;;128.68;;
30824;SDS011;17550;45.486;12.222;2022-12-22T20:28:59;237.70;;;130.15;;
30824;SDS011;17550;45.486;12.222;2022-12-22T20:31:24;228.43;;;126.97;;
30824;SDS011;17550;45.486;12.222;2022-12-22T20:33:50;226.15;;;124.97;;
30824;SDS011;17550;45.486;12.222;2022-12-22T20:36:20;225.38;;;126.00;;
30824;SDS011;17550;45.486;12.222;2022-12-22T20:38:51;232.68;;;128.45;;
30824;SDS011;17550;45.486;12.222;2022-12-22T20:41:18;228.77;;;130.38;;
30824;SDS011;17550;45.486;12.222;2022-12-22T20:43:45;234.77;;;129.52;;
30824;SDS011;17550;45.486;12.222;2022-12-22T20:46:15;231.95;;;128.13;;
30824;SDS011;17550;45.486;12.222;2022-12-22T20:48:54;232.52;;;126.63;;
30824;SDS011;17550;45.486;12.222;2022-12-22T20:51:24;227.50;;;128.20;;
30824;SDS011;17550;45.486;12.222;2022-12-22T20:53:51;221.68;;;125.78;;
30824;SDS011;17550;45.486;12.222;2022-12-22T20:58:54;212.18;;;119.25;;
30824;SDS011;17550;45.486;12.222;2022-12-22T21:01:21;256.08;;;137.40;;
30824;SDS011;17550;45.486;12.222;2022-12-22T21:03:47;258.30;;;133.88;;
30824;SDS011;17550;45.486;12.222;2022-12-22T21:08:49;229.85;;;125.25;;
30824;SDS011;17550;45.486;12.222;2022-12-22T21:11:16;223.45;;;124.40;;
30824;SDS011;17550;45.486;12.222;2022-12-22T21:13:41;226.73;;;123.68;;
30824;SDS011;17550;45.486;12.222;2022-12-22T21:16:11;226.18;;;121.70;;
30824;SDS011;17550;45.486;12.222;2022-12-22T21:18:39;261.45;;;135.27;;
30824;SDS011;17550;45.486;12.222;2022-12-22T21:21:04;279.52;;;143.68;;
30824;SDS011;17550;45.486;12.222;2022-12-22T21:23:30;283.88;;;147.18;;
30824;SDS011;17550;45.486;12.222;2022-12-22T21:25:56;313.30;;;160.10;;
30824;SDS011;17550;45.486;12.222;2022-12-22T21:28:30;274.48;;;142.82;;
30824;SDS011;17550;45.486;12.222;2022-12-22T21:31:00;278.65;;;141.85;;
30824;SDS011;17550;45.486;12.222;2022-12-22T21:33:26;282.58;;;143.55;;
30824;SDS011;17550;45.486;12.222;2022-12-22T21:35:53;268.33;;;140.52;;
30824;SDS011;17550;45.486;12.222;2022-12-22T21:38:20;265.05;;;137.57;;
30824;SDS011;17550;45.486;12.222;2022-12-22T21:40:48;293.75;;;147.57;;
30824;SDS011;17550;45.486;12.222;2022-12-22T21:43:14;279.20;;;142.75;;
30824;SDS011;17550;45.486;12.222;2022-12-22T21:45:41;258.25;;;135.88;;
30824;SDS011;17550;45.486;12.222;2022-12-22T21:48:15;235.35;;;128.40;;
30824;SDS011;17550;45.486;12.222;2022-12-22T21:50:46;264.60;;;144.73;;
30824;SDS011;17550;45.486;12.222;2022-12-22T21:53:14;239.52;;;129.82;;
30824;SDS011;17550;45.486;12.222;2022-12-22T21:55:40;249.30;;;130.98;;
30824;SDS011;17550;45.486;12.222;2022-12-22T21:58:08;246.95;;;132.38;;
30824;SDS011;17550;45.486;12.222;2022-12-22T22:00:37;240.63;;;130.18;;
30824;SDS011;17550;45.486;12.222;2022-12-22T22:03:05;235.85;;;131.40;;
30824;SDS011;17550;45.486;12.222;2022-12-22T22:05:34;239.13;;;134.40;;
30824;SDS011;17550;45.486;12.222;2022-12-22T22:08:03;239.55;;;132.05;;
30824;SDS011;17550;45.486;12.222;2022-12-22T22:10:37;236.32;;;130.80;;
30824;SDS011;17550;45.486;12.222;2022-12-22T22:13:05;244.10;;;131.32;;
30824;SDS011;17550;45.486;12.222;2022-12-22T22:15:31;240.57;;;132.02;;
30824;SDS011;17550;45.486;12.222;2022-12-22T22:17:58;241.02;;;129.52;;
30824;SDS011;17550;45.486;12.222;2022-12-22T22:20:25;269.33;;;139.27;;
30824;SDS011;17550;45.486;12.222;2022-12-22T22:22:53;259.77;;;134.15;;
30824;SDS011;17550;45.486;12.222;2022-12-22T22:25:20;250.77;;;133.65;;
30824;SDS011;17550;45.486;12.222;2022-12-22T22:27:46;271.80;;;135.82;;
30824;SDS011;17550;45.486;12.222;2022-12-22T22:30:30;247.80;;;134.85;;
30824;SDS011;17550;45.486;12.222;2022-12-22T22:32:55;249.77;;;133.35;;
30824;SDS011;17550;45.486;12.222;2022-12-22T22:35:22;247.00;;;132.50;;
30824;SDS011;17550;45.486;12.222;2022-12-22T22:37:48;239.57;;;134.23;;
30824;SDS011;17550;45.486;12.222;2022-12-22T22:40:15;245.70;;;134.80;;
30824;SDS011;17550;45.486;12.222;2022-12-22T22:42:42;241.23;;;131.82;;
30824;SDS011;17550;45.486;12.222;2022-12-22T22:45:09;241.40;;;132.93;;
30824;SDS011;17550;45.486;12.222;2022-12-22T22:47:39;269.23;;;146.52;;
30824;SDS011;17550;45.486;12.222;2022-12-22T22:50:05;229.20;;;128.73;;
30824;SDS011;17550;45.486;12.222;2022-12-22T22:52:33;234.63;;;126.25;;
30824;SDS011;17550;45.486;12.222;2022-12-22T22:54:59;229.15;;;126.53;;
30824;SDS011;17550;45.486;12.222;2022-12-22T22:57:24;217.73;;;123.55;;
30824;SDS011;17550;45.486;12.222;2022-12-22T22:59:50;231.95;;;127.10;;
30824;SDS011;17550;45.486;12.222;2022-12-22T23:02:15;213.70;;;121.68;;
30824;SDS011;17550;45.486;12.222;2022-12-22T23:04:41;211.20;;;121.00;;
30824;SDS011;17550;45.486;12.222;2022-12-22T23:07:08;217.95;;;121.85;;
30824;SDS011;17550;45.486;12.222;2022-12-22T23:09:33;222.57;;;121.88;;
30824;SDS011;17550;45.486;12.222;2022-12-22T23:11:59;223.35;;;125.35;;
30824;SDS011;17550;45.486;12.222;2022-12-22T23:14:25;217.27;;;123.72;;
30824;SDS011;17550;45.486;12.222;2022-12-22T23:16:50;226.77;;;122.65;;
30824;SDS011;17550;45.486;12.222;2022-12-22T23:19:16;214.00;;;120.80;;
30824;SDS011;17550;45.486;12.222;2022-12-22T23:21:42;217.63;;;119.88;;
30824;SDS011;17550;45.486;12.222;2022-12-22T23:24:09;214.23;;;119.32;;
30824;SDS011;17550;45.486;12.222;2022-12-22T23:26:36;215.07;;;121.45;;
30824;SDS011;17550;45.486;12.222;2022-12-22T23:29:02;211.90;;;119.22;;
30824;SDS011;17550;45.486;12.222;2022-12-22T23:31:29;213.95;;;119.50;;
30824;SDS011;17550;45.486;12.222;2022-12-22T23:33:56;217.98;;;120.85;;
30824;SDS011;17550;45.486;12.222;2022-12-22T23:36:22;219.93;;;124.90;;
30824;SDS011;17550;45.486;12.222;2022-12-22T23:38:47;230.85;;;127.35;;
30824;SDS011;17550;45.486;12.222;2022-12-22T23:41:15;228.10;;;125.35;;
30824;SDS011;17550;45.486;12.222;2022-12-22T23:43:42;226.48;;;124.47;;
30824;SDS011;17550;45.486;12.222;2022-12-22T23:46:08;235.30;;;130.05;;
30824;SDS011;17550;45.486;12.222;2022-12-22T23:48:36;224.57;;;126.70;;
30824;SDS011;17550;45.486;12.222;2022-12-22T23:51:04;230.27;;;124.93;;
30824;SDS011;17550;45.486;12.222;2022-12-22T23:53:30;222.80;;;123.65;;
30824;SDS011;17550;45.486;12.222;2022-12-22T23:55:56;233.82;;;129.13;;
30824;SDS011;17550;45.486;12.222;2022-12-22T23:58:22;233.60;;;129.15;;
